sensor_id;sensor_type;location;lat;lon;timestamp;P1;durP1;ratioP1;P2;durP2;ratioP2
50363;SDS011;36272;59.400;17.982;2023-03-31T00:03:44;5.30;;;2.63;;
50363;SDS011;36272;59.400;17.982;2023-03-31T00:08:46;5.38;;;2.80;;
50363;SDS011;36272;59.400;17.982;2023-03-31T00:13:51;3.65;;;2.55;;
50363;SDS011;36272;59.400;17.982;2023-03-31T00:18:53;4.20;;;2.65;;
50363;SDS011;36272;59.400;17.982;2023-03-31T00:23:56;3.60;;;3.15;;
50363;SDS011;36272;59.400;17.982;2023-03-31T00:29:03;6.87;;;3.00;;
50363;SDS011;36272;59.400;17.982;2023-03-31T00:34:06;3.63;;;2.75;;
50363;SDS011;36272;59.400;17.982;2023-03-31T00:39:08;3.83;;;2.67;;
50363;SDS011;36272;59.400;17.982;2023-03-31T00:54:31;2.80;;;2.50;;
50363;SDS011;36272;59.400;17.982;2023-03-31T00:59:45;3.40;;;2.83;;
50363;SDS011;36272;59.400;17.982;2023-03-31T01:04:51;5.07;;;2.47;;
50363;SDS011;36272;59.400;17.982;2023-03-31T01:10:02;3.20;;;2.45;;
50363;SDS011;36272;59.400;17.982;2023-03-31T01:15:05;4.43;;;2.67;;
50363;SDS011;36272;59.400;17.982;2023-03-31T01:30:44;5.57;;;2.70;;
50363;SDS011;36272;59.400;17.982;2023-03-31T01:41:48;2.80;;;2.50;;
50363;SDS011;36272;59.400;17.982;2023-03-31T01:57:52;4.22;;;2.58;;
50363;SDS011;36272;59.400;17.982;2023-03-31T02:03:07;2.92;;;2.40;;
50363;SDS011;36272;59.400;17.982;2023-03-31T02:08:34;3.50;;;2.67;;
50363;SDS011;36272;59.400;17.982;2023-03-31T02:13:40;7.10;;;2.72;;
50363;SDS011;36272;59.400;17.982;2023-03-31T02:18:51;2.88;;;2.25;;
50363;SDS011;36272;59.400;17.982;2023-03-31T02:24:03;3.33;;;2.40;;
50363;SDS011;36272;59.400;17.982;2023-03-31T02:29:08;3.25;;;2.40;;
50363;SDS011;36272;59.400;17.982;2023-03-31T02:34:10;4.55;;;2.70;;
50363;SDS011;36272;59.400;17.982;2023-03-31T02:39:13;6.13;;;2.45;;
50363;SDS011;36272;59.400;17.982;2023-03-31T02:44:18;2.72;;;2.20;;
50363;SDS011;36272;59.400;17.982;2023-03-31T02:49:31;7.15;;;2.63;;
50363;SDS011;36272;59.400;17.982;2023-03-31T03:15:43;4.05;;;2.67;;
50363;SDS011;36272;59.400;17.982;2023-03-31T03:21:02;4.70;;;2.78;;
50363;SDS011;36272;59.400;17.982;2023-03-31T03:26:04;4.70;;;2.55;;
50363;SDS011;36272;59.400;17.982;2023-03-31T03:31:06;3.55;;;2.60;;
50363;SDS011;36272;59.400;17.982;2023-03-31T03:36:09;5.25;;;2.40;;
50363;SDS011;36272;59.400;17.982;2023-03-31T03:46:33;4.78;;;2.45;;
50363;SDS011;36272;59.400;17.982;2023-03-31T03:51:40;4.07;;;2.72;;
50363;SDS011;36272;59.400;17.982;2023-03-31T03:56:41;3.97;;;2.55;;
50363;SDS011;36272;59.400;17.982;2023-03-31T04:01:43;3.70;;;2.50;;
50363;SDS011;36272;59.400;17.982;2023-03-31T04:06:45;3.63;;;2.42;;
50363;SDS011;36272;59.400;17.982;2023-03-31T04:11:46;4.38;;;2.60;;
50363;SDS011;36272;59.400;17.982;2023-03-31T04:16:50;4.40;;;2.80;;
50363;SDS011;36272;59.400;17.982;2023-03-31T04:21:52;5.95;;;2.75;;
50363;SDS011;36272;59.400;17.982;2023-03-31T04:27:03;3.78;;;2.60;;
50363;SDS011;36272;59.400;17.982;2023-03-31T04:32:07;3.53;;;2.63;;
50363;SDS011;36272;59.400;17.982;2023-03-31T04:37:09;4.07;;;2.92;;
50363;SDS011;36272;59.400;17.982;2023-03-31T04:42:11;4.43;;;2.60;;
50363;SDS011;36272;59.400;17.982;2023-03-31T04:47:12;3.13;;;2.75;;
50363;SDS011;36272;59.400;17.982;2023-03-31T04:52:14;3.00;;;2.40;;
50363;SDS011;36272;59.400;17.982;2023-03-31T04:57:16;3.95;;;2.72;;
50363;SDS011;36272;59.400;17.982;2023-03-31T05:02:23;4.55;;;2.70;;
50363;SDS011;36272;59.400;17.982;2023-03-31T05:07:26;5.28;;;2.88;;
50363;SDS011;36272;59.400;17.982;2023-03-31T05:12:28;4.93;;;3.17;;
50363;SDS011;36272;59.400;17.982;2023-03-31T05:17:30;7.10;;;2.60;;
50363;SDS011;36272;59.400;17.982;2023-03-31T05:22:36;4.28;;;2.83;;
50363;SDS011;36272;59.400;17.982;2023-03-31T05:27:39;5.38;;;3.03;;
50363;SDS011;36272;59.400;17.982;2023-03-31T05:32:40;6.13;;;2.72;;
50363;SDS011;36272;59.400;17.982;2023-03-31T05:37:42;3.35;;;2.03;;
50363;SDS011;36272;59.400;17.982;2023-03-31T05:42:44;2.65;;;2.45;;
50363;SDS011;36272;59.400;17.982;2023-03-31T05:47:46;6.88;;;2.80;;
50363;SDS011;36272;59.400;17.982;2023-03-31T05:52:47;3.45;;;2.63;;
50363;SDS011;36272;59.400;17.982;2023-03-31T05:57:49;7.50;;;3.00;;
50363;SDS011;36272;59.400;17.982;2023-03-31T06:02:51;5.03;;;3.00;;
50363;SDS011;36272;59.400;17.982;2023-03-31T06:07:53;4.53;;;2.58;;
50363;SDS011;36272;59.400;17.982;2023-03-31T06:12:54;8.85;;;2.70;;
50363;SDS011;36272;59.400;17.982;2023-03-31T06:17:56;4.47;;;2.75;;
50363;SDS011;36272;59.400;17.982;2023-03-31T06:22:57;3.53;;;2.55;;
50363;SDS011;36272;59.400;17.982;2023-03-31T06:27:59;4.57;;;2.63;;
50363;SDS011;36272;59.400;17.982;2023-03-31T06:33:01;5.05;;;2.35;;
50363;SDS011;36272;59.400;17.982;2023-03-31T06:38:02;6.40;;;2.85;;
50363;SDS011;36272;59.400;17.982;2023-03-31T06:43:04;4.28;;;2.70;;
50363;SDS011;36272;59.400;17.982;2023-03-31T06:48:06;4.75;;;2.65;;
50363;SDS011;36272;59.400;17.982;2023-03-31T06:53:07;4.35;;;2.58;;
50363;SDS011;36272;59.400;17.982;2023-03-31T06:58:09;5.45;;;2.70;;
50363;SDS011;36272;59.400;17.982;2023-03-31T07:03:12;5.80;;;2.80;;
50363;SDS011;36272;59.400;17.982;2023-03-31T07:08:14;8.52;;;2.70;;
50363;SDS011;36272;59.400;17.982;2023-03-31T07:13:18;4.90;;;2.45;;
50363;SDS011;36272;59.400;17.982;2023-03-31T07:18:19;5.47;;;2.53;;
50363;SDS011;36272;59.400;17.982;2023-03-31T07:23:21;5.63;;;2.65;;
50363;SDS011;36272;59.400;17.982;2023-03-31T07:28:23;4.53;;;2.85;;
50363;SDS011;36272;59.400;17.982;2023-03-31T07:33:24;6.43;;;2.60;;
50363;SDS011;36272;59.400;17.982;2023-03-31T07:38:26;6.35;;;2.60;;
50363;SDS011;36272;59.400;17.982;2023-03-31T07:43:28;4.65;;;2.83;;
50363;SDS011;36272;59.400;17.982;2023-03-31T07:48:29;4.15;;;2.60;;
50363;SDS011;36272;59.400;17.982;2023-03-31T07:53:31;4.88;;;2.40;;
50363;SDS011;36272;59.400;17.982;2023-03-31T07:58:33;3.42;;;2.38;;
50363;SDS011;36272;59.400;17.982;2023-03-31T08:03:35;2.90;;;2.13;;
50363;SDS011;36272;59.400;17.982;2023-03-31T08:08:36;4.32;;;2.60;;
50363;SDS011;36272;59.400;17.982;2023-03-31T08:13:43;5.40;;;2.47;;
50363;SDS011;36272;59.400;17.982;2023-03-31T08:18:44;4.57;;;2.42;;
50363;SDS011;36272;59.400;17.982;2023-03-31T08:23:46;4.13;;;2.15;;
50363;SDS011;36272;59.400;17.982;2023-03-31T08:28:48;2.63;;;2.10;;
50363;SDS011;36272;59.400;17.982;2023-03-31T08:33:49;3.05;;;2.10;;
50363;SDS011;36272;59.400;17.982;2023-03-31T08:38:51;4.97;;;2.13;;
50363;SDS011;36272;59.400;17.982;2023-03-31T08:43:54;2.92;;;2.05;;
50363;SDS011;36272;59.400;17.982;2023-03-31T08:48:58;4.15;;;2.38;;
50363;SDS011;36272;59.400;17.982;2023-03-31T08:59:06;3.95;;;2.25;;
50363;SDS011;36272;59.400;17.982;2023-03-31T09:09:46;2.78;;;2.00;;
50363;SDS011;36272;59.400;17.982;2023-03-31T09:20:04;4.90;;;1.80;;
50363;SDS011;36272;59.400;17.982;2023-03-31T09:25:15;3.63;;;2.20;;
50363;SDS011;36272;59.400;17.982;2023-03-31T09:30:25;3.92;;;2.28;;
50363;SDS011;36272;59.400;17.982;2023-03-31T09:35:28;3.17;;;1.90;;
50363;SDS011;36272;59.400;17.982;2023-03-31T09:40:33;2.83;;;2.23;;
50363;SDS011;36272;59.400;17.982;2023-03-31T09:45:35;2.85;;;2.08;;
50363;SDS011;36272;59.400;17.982;2023-03-31T09:50:52;4.03;;;2.13;;
50363;SDS011;36272;59.400;17.982;2023-03-31T09:56:06;4.75;;;2.00;;
50363;SDS011;36272;59.400;17.982;2023-03-31T10:01:11;3.63;;;2.20;;
50363;SDS011;36272;59.400;17.982;2023-03-31T10:06:15;2.22;;;1.70;;
50363;SDS011;36272;59.400;17.982;2023-03-31T10:11:18;4.55;;;2.40;;
50363;SDS011;36272;59.400;17.982;2023-03-31T10:21:24;2.03;;;1.70;;
50363;SDS011;36272;59.400;17.982;2023-03-31T10:26:27;2.47;;;1.70;;
50363;SDS011;36272;59.400;17.982;2023-03-31T10:31:33;3.55;;;1.65;;
50363;SDS011;36272;59.400;17.982;2023-03-31T10:36:36;2.95;;;1.75;;
50363;SDS011;36272;59.400;17.982;2023-03-31T10:41:40;1.65;;;1.52;;
50363;SDS011;36272;59.400;17.982;2023-03-31T10:46:45;2.00;;;1.38;;
50363;SDS011;36272;59.400;17.982;2023-03-31T10:56:56;5.75;;;1.98;;
50363;SDS011;36272;59.400;17.982;2023-03-31T11:23:40;4.55;;;1.60;;
50363;SDS011;36272;59.400;17.982;2023-03-31T11:39:24;2.10;;;1.08;;
50363;SDS011;36272;59.400;17.982;2023-03-31T11:44:34;4.75;;;1.58;;
50363;SDS011;36272;59.400;17.982;2023-03-31T11:49:47;2.63;;;1.33;;
50363;SDS011;36272;59.400;17.982;2023-03-31T12:00:20;1.75;;;1.00;;
50363;SDS011;36272;59.400;17.982;2023-03-31T12:05:27;1.60;;;1.23;;
50363;SDS011;36272;59.400;17.982;2023-03-31T12:16:03;1.75;;;1.00;;
50363;SDS011;36272;59.400;17.982;2023-03-31T12:21:09;1.95;;;1.20;;
50363;SDS011;36272;59.400;17.982;2023-03-31T12:31:19;3.42;;;1.15;;
50363;SDS011;36272;59.400;17.982;2023-03-31T13:08:53;1.75;;;0.90;;
50363;SDS011;36272;59.400;17.982;2023-03-31T13:14:00;2.35;;;1.17;;
50363;SDS011;36272;59.400;17.982;2023-03-31T13:19:05;1.08;;;0.95;;
50363;SDS011;36272;59.400;17.982;2023-03-31T13:24:07;0.88;;;0.77;;
50363;SDS011;36272;59.400;17.982;2023-03-31T13:29:20;3.22;;;1.35;;
50363;SDS011;36272;59.400;17.982;2023-03-31T13:34:23;1.25;;;1.02;;
50363;SDS011;36272;59.400;17.982;2023-03-31T13:45:09;1.98;;;0.88;;
50363;SDS011;36272;59.400;17.982;2023-03-31T14:11:24;3.90;;;0.85;;
50363;SDS011;36272;59.400;17.982;2023-03-31T14:16:27;3.00;;;1.00;;
50363;SDS011;36272;59.400;17.982;2023-03-31T14:21:42;1.83;;;0.90;;
50363;SDS011;36272;59.400;17.982;2023-03-31T14:32:43;1.95;;;0.90;;
50363;SDS011;36272;59.400;17.982;2023-03-31T14:58:27;1.05;;;0.75;;
50363;SDS011;36272;59.400;17.982;2023-03-31T15:03:51;3.20;;;1.20;;
50363;SDS011;36272;59.400;17.982;2023-03-31T15:09:00;2.78;;;1.13;;
50363;SDS011;36272;59.400;17.982;2023-03-31T15:14:04;2.50;;;1.00;;
50363;SDS011;36272;59.400;17.982;2023-03-31T15:19:11;1.67;;;1.10;;
50363;SDS011;36272;59.400;17.982;2023-03-31T15:24:16;6.82;;;1.45;;
50363;SDS011;36272;59.400;17.982;2023-03-31T15:34:26;2.15;;;1.00;;
50363;SDS011;36272;59.400;17.982;2023-03-31T15:39:38;5.13;;;1.30;;
50363;SDS011;36272;59.400;17.982;2023-03-31T15:44:50;4.00;;;1.10;;
50363;SDS011;36272;59.400;17.982;2023-03-31T15:55:23;1.25;;;1.05;;
50363;SDS011;36272;59.400;17.982;2023-03-31T16:05:52;3.28;;;0.98;;
50363;SDS011;36272;59.400;17.982;2023-03-31T16:11:04;0.82;;;0.80;;
50363;SDS011;36272;59.400;17.982;2023-03-31T16:16:11;1.63;;;1.02;;
50363;SDS011;36272;59.400;17.982;2023-03-31T16:21:21;2.15;;;1.40;;
50363;SDS011;36272;59.400;17.982;2023-03-31T16:26:31;2.45;;;1.00;;
50363;SDS011;36272;59.400;17.982;2023-03-31T16:31:37;1.90;;;1.00;;
50363;SDS011;36272;59.400;17.982;2023-03-31T16:36:41;0.88;;;0.68;;
50363;SDS011;36272;59.400;17.982;2023-03-31T16:41:43;3.33;;;0.98;;
50363;SDS011;36272;59.400;17.982;2023-03-31T16:46:47;1.75;;;1.30;;
50363;SDS011;36272;59.400;17.982;2023-03-31T16:52:34;3.58;;;1.15;;
50363;SDS011;36272;59.400;17.982;2023-03-31T16:58:37;2.28;;;1.30;;
50363;SDS011;36272;59.400;17.982;2023-03-31T17:03:39;3.10;;;1.17;;
50363;SDS011;36272;59.400;17.982;2023-03-31T17:08:44;3.55;;;1.50;;
50363;SDS011;36272;59.400;17.982;2023-03-31T17:13:45;2.38;;;1.05;;
50363;SDS011;36272;59.400;17.982;2023-03-31T17:18:53;3.88;;;1.20;;
50363;SDS011;36272;59.400;17.982;2023-03-31T17:23:55;2.13;;;1.10;;
50363;SDS011;36272;59.400;17.982;2023-03-31T17:28:57;2.20;;;1.38;;
50363;SDS011;36272;59.400;17.982;2023-03-31T17:34:00;1.65;;;1.08;;
50363;SDS011;36272;59.400;17.982;2023-03-31T17:39:05;2.50;;;1.10;;
50363;SDS011;36272;59.400;17.982;2023-03-31T17:44:07;3.13;;;1.30;;
50363;SDS011;36272;59.400;17.982;2023-03-31T17:49:09;1.98;;;1.20;;
50363;SDS011;36272;59.400;17.982;2023-03-31T17:54:11;2.58;;;1.50;;
50363;SDS011;36272;59.400;17.982;2023-03-31T17:59:14;2.78;;;1.65;;
50363;SDS011;36272;59.400;17.982;2023-03-31T18:04:22;2.10;;;1.58;;
50363;SDS011;36272;59.400;17.982;2023-03-31T18:09:34;11.85;;;1.80;;
50363;SDS011;36272;59.400;17.982;2023-03-31T18:14:36;5.60;;;1.30;;
50363;SDS011;36272;59.400;17.982;2023-03-31T18:19:48;2.22;;;1.33;;
50363;SDS011;36272;59.400;17.982;2023-03-31T18:24:55;2.63;;;1.42;;
50363;SDS011;36272;59.400;17.982;2023-03-31T18:30:00;3.95;;;1.50;;
50363;SDS011;36272;59.400;17.982;2023-03-31T18:35:01;2.05;;;1.50;;
50363;SDS011;36272;59.400;17.982;2023-03-31T18:40:03;2.55;;;1.55;;
50363;SDS011;36272;59.400;17.982;2023-03-31T18:45:06;2.20;;;1.17;;
50363;SDS011;36272;59.400;17.982;2023-03-31T18:50:09;5.10;;;1.95;;
50363;SDS011;36272;59.400;17.982;2023-03-31T18:55:14;5.43;;;2.13;;
50363;SDS011;36272;59.400;17.982;2023-03-31T19:00:15;4.60;;;1.58;;
50363;SDS011;36272;59.400;17.982;2023-03-31T19:05:22;6.95;;;1.80;;
50363;SDS011;36272;59.400;17.982;2023-03-31T19:10:32;2.42;;;1.38;;
50363;SDS011;36272;59.400;17.982;2023-03-31T19:15:37;3.10;;;1.98;;
50363;SDS011;36272;59.400;17.982;2023-03-31T19:20:38;5.68;;;1.77;;
50363;SDS011;36272;59.400;17.982;2023-03-31T19:25:40;2.97;;;2.03;;
50363;SDS011;36272;59.400;17.982;2023-03-31T19:30:42;2.50;;;1.70;;
50363;SDS011;36272;59.400;17.982;2023-03-31T19:35:44;5.80;;;1.98;;
50363;SDS011;36272;59.400;17.982;2023-03-31T19:40:53;3.97;;;2.20;;
50363;SDS011;36272;59.400;17.982;2023-03-31T19:52:09;6.10;;;2.75;;
50363;SDS011;36272;59.400;17.982;2023-03-31T19:57:10;3.08;;;2.22;;
50363;SDS011;36272;59.400;17.982;2023-03-31T20:02:13;4.32;;;2.42;;
50363;SDS011;36272;59.400;17.982;2023-03-31T20:07:14;3.38;;;2.10;;
50363;SDS011;36272;59.400;17.982;2023-03-31T20:12:19;4.00;;;1.88;;
50363;SDS011;36272;59.400;17.982;2023-03-31T20:17:39;4.97;;;1.90;;
50363;SDS011;36272;59.400;17.982;2023-03-31T20:23:02;3.17;;;1.88;;
50363;SDS011;36272;59.400;17.982;2023-03-31T20:28:09;3.65;;;1.90;;
50363;SDS011;36272;59.400;17.982;2023-03-31T20:33:13;4.63;;;1.93;;
50363;SDS011;36272;59.400;17.982;2023-03-31T20:38:18;5.82;;;2.92;;
50363;SDS011;36272;59.400;17.982;2023-03-31T20:43:23;6.43;;;2.07;;
50363;SDS011;36272;59.400;17.982;2023-03-31T20:53:44;3.25;;;2.00;;
50363;SDS011;36272;59.400;17.982;2023-03-31T20:58:58;5.28;;;2.00;;
50363;SDS011;36272;59.400;17.982;2023-03-31T21:04:23;4.28;;;1.90;;
50363;SDS011;36272;59.400;17.982;2023-03-31T21:09:35;4.75;;;2.00;;
50363;SDS011;36272;59.400;17.982;2023-03-31T21:14:37;2.05;;;1.55;;
50363;SDS011;36272;59.400;17.982;2023-03-31T21:19:39;2.42;;;1.50;;
50363;SDS011;36272;59.400;17.982;2023-03-31T21:24:40;4.18;;;1.75;;
50363;SDS011;36272;59.400;17.982;2023-03-31T21:29:42;1.98;;;1.40;;
50363;SDS011;36272;59.400;17.982;2023-03-31T21:34:44;3.72;;;1.58;;
50363;SDS011;36272;59.400;17.982;2023-03-31T21:39:45;3.33;;;1.75;;
50363;SDS011;36272;59.400;17.982;2023-03-31T21:44:47;3.28;;;1.77;;
50363;SDS011;36272;59.400;17.982;2023-03-31T21:49:54;5.05;;;1.80;;
50363;SDS011;36272;59.400;17.982;2023-03-31T21:54:56;3.25;;;1.65;;
50363;SDS011;36272;59.400;17.982;2023-03-31T21:59:58;2.22;;;1.60;;
50363;SDS011;36272;59.400;17.982;2023-03-31T22:05:02;3.65;;;1.80;;
50363;SDS011;36272;59.400;17.982;2023-03-31T22:10:05;4.70;;;1.95;;
50363;SDS011;36272;59.400;17.982;2023-03-31T22:15:07;3.47;;;1.92;;
50363;SDS011;36272;59.400;17.982;2023-03-31T22:20:15;3.17;;;1.60;;
50363;SDS011;36272;59.400;17.982;2023-03-31T22:25:17;7.30;;;2.10;;
50363;SDS011;36272;59.400;17.982;2023-03-31T22:30:24;2.90;;;2.13;;
50363;SDS011;36272;59.400;17.982;2023-03-31T22:35:26;2.42;;;2.00;;
50363;SDS011;36272;59.400;17.982;2023-03-31T22:40:28;4.32;;;2.30;;
50363;SDS011;36272;59.400;17.982;2023-03-31T22:45:30;5.55;;;2.47;;
50363;SDS011;36272;59.400;17.982;2023-03-31T22:50:34;4.53;;;2.17;;
50363;SDS011;36272;59.400;17.982;2023-03-31T22:55:40;4.20;;;2.40;;
50363;SDS011;36272;59.400;17.982;2023-03-31T23:00:45;5.97;;;2.15;;
50363;SDS011;36272;59.400;17.982;2023-03-31T23:06:00;5.00;;;2.65;;
50363;SDS011;36272;59.400;17.982;2023-03-31T23:11:04;2.95;;;2.08;;
50363;SDS011;36272;59.400;17.982;2023-03-31T23:16:08;7.18;;;2.40;;
50363;SDS011;36272;59.400;17.982;2023-03-31T23:21:13;4.70;;;2.42;;
50363;SDS011;36272;59.400;17.982;2023-03-31T23:26:16;4.65;;;2.28;;
50363;SDS011;36272;59.400;17.982;2023-03-31T23:31:25;5.03;;;2.30;;
50363;SDS011;36272;59.400;17.982;2023-03-31T23:36:28;4.80;;;2.17;;
50363;SDS011;36272;59.400;17.982;2023-03-31T23:41:31;4.55;;;2.30;;
50363;SDS011;36272;59.400;17.982;2023-03-31T23:46:33;4.05;;;2.25;;
50363;SDS011;36272;59.400;17.982;2023-03-31T23:51:36;5.28;;;2.13;;
50363;SDS011;36272;59.400;17.982;2023-03-31T23:56:37;5.05;;;2.50;;
